Rixensart, Belgium
Current Conditions -  °F | °C
As of 3:33 PM on Thursday 23 Oct 2014 (Local Time) from EBBE Reporting Station
Broken Clouds Broken Clouds  
Wind Chill: 54°   Ceiling: 4000
Heat Index: 54°   Visibility: 5mi
Dew Point: 52°   Wind: 8mph
Humidity: 94%   Direction: 200°SSW
Pressure: 30.21"   Gusts: NA
Location:  50.71°N, 4.53°E
Report Text: EBBE 231333Z 20007KT 8000 FEW010 SCT020 BKN040 12/11 Q1023 WHT WHT BECMG BLU
Loading
Personal Weather Stations






























Interactive Weather Map
Tropical Storm Tracking
New forecast layout! Learn more

10-Day Weather Forecast

Advertisements
Track Severe Weather on mobile